sensor_id;sensor_type;location;lat;lon;timestamp;P1;durP1;ratioP1;P2;durP2;ratioP2
12921;SDS011;6528;48.086;16.282;2023-03-13T00:01:17;2.10;;;2.00;;
12921;SDS011;6528;48.086;16.282;2023-03-13T00:03:48;2.10;;;2.00;;
12921;SDS011;6528;48.086;16.282;2023-03-13T00:06:15;1.50;;;1.40;;
12921;SDS011;6528;48.086;16.282;2023-03-13T00:08:42;2.57;;;2.37;;
12921;SDS011;6528;48.086;16.282;2023-03-13T00:11:11;2.07;;;1.83;;
12921;SDS011;6528;48.086;16.282;2023-03-13T00:13:40;2.20;;;1.80;;
12921;SDS011;6528;48.086;16.282;2023-03-13T00:16:08;2.03;;;1.83;;
12921;SDS011;6528;48.086;16.282;2023-03-13T00:18:37;2.00;;;1.90;;
12921;SDS011;6528;48.086;16.282;2023-03-13T00:21:06;2.07;;;1.97;;
12921;SDS011;6528;48.086;16.282;2023-03-13T00:23:34;1.93;;;1.83;;
12921;SDS011;6528;48.086;16.282;2023-03-13T00:26:04;1.83;;;1.73;;
12921;SDS011;6528;48.086;16.282;2023-03-13T00:28:33;2.40;;;2.20;;
12921;SDS011;6528;48.086;16.282;2023-03-13T00:31:05;1.90;;;1.80;;
12921;SDS011;6528;48.086;16.282;2023-03-13T00:33:35;1.87;;;1.77;;
12921;SDS011;6528;48.086;16.282;2023-03-13T00:36:05;1.50;;;1.40;;
12921;SDS011;6528;48.086;16.282;2023-03-13T00:38:34;2.40;;;2.20;;
12921;SDS011;6528;48.086;16.282;2023-03-13T00:41:03;1.83;;;1.70;;
12921;SDS011;6528;48.086;16.282;2023-03-13T00:43:31;1.83;;;1.73;;
12921;SDS011;6528;48.086;16.282;2023-03-13T00:45:59;2.13;;;2.00;;
12921;SDS011;6528;48.086;16.282;2023-03-13T00:48:27;1.60;;;1.50;;
12921;SDS011;6528;48.086;16.282;2023-03-13T00:50:54;1.80;;;1.43;;
12921;SDS011;6528;48.086;16.282;2023-03-13T00:53:21;2.07;;;1.97;;
12921;SDS011;6528;48.086;16.282;2023-03-13T00:55:52;1.67;;;1.57;;
12921;SDS011;6528;48.086;16.282;2023-03-13T00:58:29;1.70;;;1.60;;
12921;SDS011;6528;48.086;16.282;2023-03-13T01:01:06;1.70;;;1.60;;
12921;SDS011;6528;48.086;16.282;2023-03-13T01:03:35;2.30;;;2.10;;
12921;SDS011;6528;48.086;16.282;2023-03-13T01:06:03;1.83;;;1.70;;
12921;SDS011;6528;48.086;16.282;2023-03-13T01:08:31;1.80;;;1.70;;
12921;SDS011;6528;48.086;16.282;2023-03-13T01:10:59;2.13;;;1.87;;
12921;SDS011;6528;48.086;16.282;2023-03-13T01:13:46;1.30;;;1.20;;
12921;SDS011;6528;48.086;16.282;2023-03-13T01:16:18;2.37;;;1.70;;
12921;SDS011;6528;48.086;16.282;2023-03-13T01:18:47;1.70;;;1.60;;
12921;SDS011;6528;48.086;16.282;2023-03-13T01:21:16;1.90;;;1.60;;
12921;SDS011;6528;48.086;16.282;2023-03-13T01:23:45;1.90;;;1.80;;
12921;SDS011;6528;48.086;16.282;2023-03-13T01:26:13;1.67;;;1.57;;
12921;SDS011;6528;48.086;16.282;2023-03-13T01:28:40;1.60;;;1.50;;
12921;SDS011;6528;48.086;16.282;2023-03-13T01:31:18;1.63;;;1.53;;
12921;SDS011;6528;48.086;16.282;2023-03-13T01:33:50;2.00;;;1.90;;
12921;SDS011;6528;48.086;16.282;2023-03-13T01:36:20;1.77;;;1.67;;
12921;SDS011;6528;48.086;16.282;2023-03-13T01:38:47;1.47;;;1.37;;
12921;SDS011;6528;48.086;16.282;2023-03-13T01:41:15;1.67;;;1.57;;
12921;SDS011;6528;48.086;16.282;2023-03-13T01:43:43;3.17;;;1.77;;
12921;SDS011;6528;48.086;16.282;2023-03-13T01:46:12;1.27;;;1.27;;
12921;SDS011;6528;48.086;16.282;2023-03-13T01:51:33;1.60;;;1.50;;
12921;SDS011;6528;48.086;16.282;2023-03-13T01:56:50;1.50;;;1.40;;
12921;SDS011;6528;48.086;16.282;2023-03-13T01:59:27;1.50;;;1.47;;
12921;SDS011;6528;48.086;16.282;2023-03-13T02:02:02;1.90;;;1.80;;
12921;SDS011;6528;48.086;16.282;2023-03-13T02:04:34;1.37;;;1.30;;
12921;SDS011;6528;48.086;16.282;2023-03-13T02:07:08;1.50;;;1.40;;
12921;SDS011;6528;48.086;16.282;2023-03-13T02:09:40;1.70;;;1.60;;
12921;SDS011;6528;48.086;16.282;2023-03-13T02:12:10;1.70;;;1.60;;
12921;SDS011;6528;48.086;16.282;2023-03-13T02:14:40;1.07;;;1.03;;
12921;SDS011;6528;48.086;16.282;2023-03-13T02:17:10;1.73;;;1.63;;
12921;SDS011;6528;48.086;16.282;2023-03-13T02:19:42;1.47;;;1.37;;
12921;SDS011;6528;48.086;16.282;2023-03-13T02:22:28;1.43;;;1.33;;
12921;SDS011;6528;48.086;16.282;2023-03-13T02:25:09;1.70;;;1.60;;
12921;SDS011;6528;48.086;16.282;2023-03-13T02:27:51;1.30;;;1.30;;
12921;SDS011;6528;48.086;16.282;2023-03-13T02:30:20;1.20;;;1.20;;
12921;SDS011;6528;48.086;16.282;2023-03-13T02:32:48;1.80;;;1.17;;
12921;SDS011;6528;48.086;16.282;2023-03-13T02:35:16;1.60;;;1.50;;
12921;SDS011;6528;48.086;16.282;2023-03-13T02:37:45;1.47;;;1.37;;
12921;SDS011;6528;48.086;16.282;2023-03-13T02:40:17;1.53;;;1.43;;
12921;SDS011;6528;48.086;16.282;2023-03-13T02:42:48;1.53;;;1.43;;
12921;SDS011;6528;48.086;16.282;2023-03-13T02:45:17;1.57;;;1.47;;
12921;SDS011;6528;48.086;16.282;2023-03-13T02:47:44;1.67;;;1.57;;
12921;SDS011;6528;48.086;16.282;2023-03-13T02:50:12;1.57;;;1.47;;
12921;SDS011;6528;48.086;16.282;2023-03-13T02:52:44;1.60;;;1.50;;
12921;SDS011;6528;48.086;16.282;2023-03-13T02:55:21;1.47;;;1.40;;
12921;SDS011;6528;48.086;16.282;2023-03-13T02:57:52;1.33;;;1.30;;
12921;SDS011;6528;48.086;16.282;2023-03-13T03:00:19;1.70;;;1.60;;
12921;SDS011;6528;48.086;16.282;2023-03-13T03:02:54;1.60;;;1.50;;
12921;SDS011;6528;48.086;16.282;2023-03-13T03:05:21;1.30;;;1.20;;
12921;SDS011;6528;48.086;16.282;2023-03-13T03:07:49;1.40;;;1.30;;
12921;SDS011;6528;48.086;16.282;2023-03-13T03:10:17;1.83;;;1.73;;
12921;SDS011;6528;48.086;16.282;2023-03-13T03:12:44;1.47;;;1.37;;
12921;SDS011;6528;48.086;16.282;2023-03-13T03:15:11;1.00;;;1.00;;
12921;SDS011;6528;48.086;16.282;2023-03-13T03:17:38;1.10;;;1.00;;
12921;SDS011;6528;48.086;16.282;2023-03-13T03:20:05;1.10;;;1.00;;
12921;SDS011;6528;48.086;16.282;2023-03-13T03:22:38;1.60;;;1.50;;
12921;SDS011;6528;48.086;16.282;2023-03-13T03:25:06;1.20;;;1.20;;
12921;SDS011;6528;48.086;16.282;2023-03-13T03:27:34;1.30;;;1.20;;
12921;SDS011;6528;48.086;16.282;2023-03-13T03:30:02;1.40;;;1.30;;
12921;SDS011;6528;48.086;16.282;2023-03-13T03:32:30;1.47;;;1.37;;
12921;SDS011;6528;48.086;16.282;2023-03-13T03:34:57;1.20;;;1.10;;
12921;SDS011;6528;48.086;16.282;2023-03-13T03:37:24;1.13;;;1.13;;
12921;SDS011;6528;48.086;16.282;2023-03-13T03:39:51;1.27;;;1.20;;
12921;SDS011;6528;48.086;16.282;2023-03-13T03:42:18;1.30;;;1.20;;
12921;SDS011;6528;48.086;16.282;2023-03-13T03:44:45;1.00;;;1.00;;
12921;SDS011;6528;48.086;16.282;2023-03-13T03:47:12;1.37;;;1.10;;
12921;SDS011;6528;48.086;16.282;2023-03-13T03:49:39;0.97;;;0.90;;
12921;SDS011;6528;48.086;16.282;2023-03-13T03:52:06;1.30;;;1.20;;
12921;SDS011;6528;48.086;16.282;2023-03-13T03:54:33;1.03;;;1.03;;
12921;SDS011;6528;48.086;16.282;2023-03-13T03:57:00;0.90;;;0.90;;
12921;SDS011;6528;48.086;16.282;2023-03-13T03:59:27;1.20;;;1.17;;
12921;SDS011;6528;48.086;16.282;2023-03-13T04:01:54;1.40;;;1.30;;
12921;SDS011;6528;48.086;16.282;2023-03-13T04:04:21;1.13;;;1.13;;
12921;SDS011;6528;48.086;16.282;2023-03-13T04:06:48;1.63;;;1.53;;
12921;SDS011;6528;48.086;16.282;2023-03-13T04:09:14;0.83;;;0.83;;
12921;SDS011;6528;48.086;16.282;2023-03-13T04:11:41;1.30;;;1.20;;
12921;SDS011;6528;48.086;16.282;2023-03-13T04:14:08;0.80;;;0.80;;
12921;SDS011;6528;48.086;16.282;2023-03-13T04:16:35;1.20;;;1.20;;
12921;SDS011;6528;48.086;16.282;2023-03-13T04:19:02;1.80;;;1.17;;
12921;SDS011;6528;48.086;16.282;2023-03-13T04:21:29;1.57;;;1.47;;
12921;SDS011;6528;48.086;16.282;2023-03-13T04:23:56;1.50;;;1.20;;
12921;SDS011;6528;48.086;16.282;2023-03-13T04:26:23;2.30;;;1.10;;
12921;SDS011;6528;48.086;16.282;2023-03-13T04:28:50;1.30;;;1.20;;
12921;SDS011;6528;48.086;16.282;2023-03-13T04:31:17;1.47;;;0.90;;
12921;SDS011;6528;48.086;16.282;2023-03-13T04:33:44;1.30;;;1.13;;
12921;SDS011;6528;48.086;16.282;2023-03-13T04:36:11;1.40;;;1.20;;
12921;SDS011;6528;48.086;16.282;2023-03-13T04:38:38;1.27;;;1.17;;
12921;SDS011;6528;48.086;16.282;2023-03-13T04:41:05;0.90;;;0.90;;
12921;SDS011;6528;48.086;16.282;2023-03-13T04:43:31;1.00;;;1.00;;
12921;SDS011;6528;48.086;16.282;2023-03-13T04:45:59;1.00;;;1.00;;
12921;SDS011;6528;48.086;16.282;2023-03-13T04:48:27;0.83;;;0.83;;
12921;SDS011;6528;48.086;16.282;2023-03-13T04:50:53;1.03;;;1.00;;
12921;SDS011;6528;48.086;16.282;2023-03-13T04:53:20;1.03;;;1.03;;
12921;SDS011;6528;48.086;16.282;2023-03-13T04:55:48;1.10;;;1.10;;
12921;SDS011;6528;48.086;16.282;2023-03-13T04:58:15;0.80;;;0.80;;
12921;SDS011;6528;48.086;16.282;2023-03-13T05:00:42;1.23;;;1.17;;
12921;SDS011;6528;48.086;16.282;2023-03-13T05:03:09;1.10;;;0.93;;
12921;SDS011;6528;48.086;16.282;2023-03-13T05:05:36;1.83;;;1.50;;
12921;SDS011;6528;48.086;16.282;2023-03-13T05:08:03;1.00;;;0.83;;
12921;SDS011;6528;48.086;16.282;2023-03-13T05:10:31;0.97;;;0.97;;
12921;SDS011;6528;48.086;16.282;2023-03-13T05:12:58;1.60;;;1.00;;
12921;SDS011;6528;48.086;16.282;2023-03-13T05:15:25;1.10;;;1.00;;
12921;SDS011;6528;48.086;16.282;2023-03-13T05:17:51;1.00;;;1.00;;
12921;SDS011;6528;48.086;16.282;2023-03-13T05:20:20;0.80;;;0.80;;
12921;SDS011;6528;48.086;16.282;2023-03-13T05:22:47;0.87;;;0.87;;
12921;SDS011;6528;48.086;16.282;2023-03-13T05:25:15;1.23;;;1.10;;
12921;SDS011;6528;48.086;16.282;2023-03-13T05:27:42;1.20;;;1.10;;
12921;SDS011;6528;48.086;16.282;2023-03-13T05:30:09;1.30;;;1.20;;
12921;SDS011;6528;48.086;16.282;2023-03-13T05:32:36;1.53;;;1.07;;
12921;SDS011;6528;48.086;16.282;2023-03-13T05:35:03;0.83;;;0.80;;
12921;SDS011;6528;48.086;16.282;2023-03-13T05:37:30;0.87;;;0.87;;
12921;SDS011;6528;48.086;16.282;2023-03-13T05:39:57;0.80;;;0.80;;
12921;SDS011;6528;48.086;16.282;2023-03-13T05:42:24;1.13;;;1.03;;
12921;SDS011;6528;48.086;16.282;2023-03-13T05:44:52;1.30;;;1.20;;
12921;SDS011;6528;48.086;16.282;2023-03-13T05:47:19;0.90;;;0.90;;
12921;SDS011;6528;48.086;16.282;2023-03-13T05:49:46;1.00;;;1.00;;
12921;SDS011;6528;48.086;16.282;2023-03-13T05:52:13;1.37;;;1.27;;
12921;SDS011;6528;48.086;16.282;2023-03-13T05:54:40;1.67;;;1.30;;
12921;SDS011;6528;48.086;16.282;2023-03-13T05:57:06;1.00;;;1.00;;
12921;SDS011;6528;48.086;16.282;2023-03-13T05:59:33;1.60;;;0.77;;
12921;SDS011;6528;48.086;16.282;2023-03-13T06:02:00;0.80;;;0.80;;
12921;SDS011;6528;48.086;16.282;2023-03-13T06:04:27;0.83;;;0.83;;
12921;SDS011;6528;48.086;16.282;2023-03-13T06:06:54;1.23;;;1.13;;
12921;SDS011;6528;48.086;16.282;2023-03-13T06:09:21;1.60;;;0.73;;
12921;SDS011;6528;48.086;16.282;2023-03-13T06:11:48;1.07;;;0.97;;
12921;SDS011;6528;48.086;16.282;2023-03-13T06:14:15;0.93;;;0.93;;
12921;SDS011;6528;48.086;16.282;2023-03-13T06:16:42;1.17;;;0.70;;
12921;SDS011;6528;48.086;16.282;2023-03-13T06:19:09;0.83;;;0.83;;
12921;SDS011;6528;48.086;16.282;2023-03-13T06:21:36;2.17;;;1.00;;
12921;SDS011;6528;48.086;16.282;2023-03-13T06:24:03;1.10;;;1.00;;
12921;SDS011;6528;48.086;16.282;2023-03-13T06:26:30;1.03;;;1.03;;
12921;SDS011;6528;48.086;16.282;2023-03-13T06:28:57;1.10;;;1.00;;
12921;SDS011;6528;48.086;16.282;2023-03-13T06:31:24;0.90;;;0.90;;
12921;SDS011;6528;48.086;16.282;2023-03-13T06:33:52;1.37;;;1.27;;
12921;SDS011;6528;48.086;16.282;2023-03-13T06:36:20;0.80;;;0.70;;
12921;SDS011;6528;48.086;16.282;2023-03-13T06:38:48;1.03;;;0.87;;
12921;SDS011;6528;48.086;16.282;2023-03-13T06:41:16;0.80;;;0.80;;
12921;SDS011;6528;48.086;16.282;2023-03-13T06:43:44;2.63;;;1.33;;
12921;SDS011;6528;48.086;16.282;2023-03-13T06:46:15;1.20;;;1.10;;
12921;SDS011;6528;48.086;16.282;2023-03-13T06:48:44;2.40;;;1.90;;
12921;SDS011;6528;48.086;16.282;2023-03-13T06:51:12;6.03;;;3.10;;
12921;SDS011;6528;48.086;16.282;2023-03-13T06:53:40;5.50;;;3.60;;
12921;SDS011;6528;48.086;16.282;2023-03-13T06:56:08;3.80;;;3.40;;
12921;SDS011;6528;48.086;16.282;2023-03-13T06:58:35;8.53;;;3.77;;
12921;SDS011;6528;48.086;16.282;2023-03-13T07:01:06;3.87;;;3.53;;
12921;SDS011;6528;48.086;16.282;2023-03-13T07:03:37;5.63;;;4.80;;
12921;SDS011;6528;48.086;16.282;2023-03-13T07:06:07;4.17;;;3.77;;
12921;SDS011;6528;48.086;16.282;2023-03-13T07:08:34;6.03;;;4.93;;
12921;SDS011;6528;48.086;16.282;2023-03-13T07:11:03;7.67;;;4.73;;
12921;SDS011;6528;48.086;16.282;2023-03-13T07:13:32;7.50;;;5.50;;
12921;SDS011;6528;48.086;16.282;2023-03-13T07:16:03;10.57;;;5.73;;
12921;SDS011;6528;48.086;16.282;2023-03-13T07:18:35;6.87;;;5.43;;
12921;SDS011;6528;48.086;16.282;2023-03-13T07:21:03;7.50;;;6.57;;
12921;SDS011;6528;48.086;16.282;2023-03-13T07:23:31;8.50;;;6.20;;
12921;SDS011;6528;48.086;16.282;2023-03-13T07:26:00;9.20;;;6.23;;
12921;SDS011;6528;48.086;16.282;2023-03-13T07:28:29;10.40;;;6.20;;
12921;SDS011;6528;48.086;16.282;2023-03-13T07:31:04;9.23;;;7.13;;
12921;SDS011;6528;48.086;16.282;2023-03-13T07:33:42;11.50;;;8.80;;
12921;SDS011;6528;48.086;16.282;2023-03-13T07:36:14;10.60;;;7.70;;
12921;SDS011;6528;48.086;16.282;2023-03-13T07:38:41;9.73;;;8.00;;
12921;SDS011;6528;48.086;16.282;2023-03-13T07:41:10;10.53;;;8.10;;
12921;SDS011;6528;48.086;16.282;2023-03-13T07:43:38;11.80;;;7.83;;
12921;SDS011;6528;48.086;16.282;2023-03-13T07:46:07;11.73;;;9.13;;
12921;SDS011;6528;48.086;16.282;2023-03-13T07:48:38;8.97;;;7.57;;
12921;SDS011;6528;48.086;16.282;2023-03-13T07:51:09;11.40;;;8.60;;
12921;SDS011;6528;48.086;16.282;2023-03-13T07:53:42;10.63;;;8.30;;
12921;SDS011;6528;48.086;16.282;2023-03-13T07:56:13;10.43;;;8.77;;
12921;SDS011;6528;48.086;16.282;2023-03-13T07:58:43;10.67;;;8.40;;
12921;SDS011;6528;48.086;16.282;2023-03-13T08:03:41;9.90;;;8.90;;
12921;SDS011;6528;48.086;16.282;2023-03-13T08:06:12;10.10;;;8.60;;
12921;SDS011;6528;48.086;16.282;2023-03-13T08:08:44;8.93;;;7.33;;
12921;SDS011;6528;48.086;16.282;2023-03-13T08:11:13;10.57;;;8.30;;
12921;SDS011;6528;48.086;16.282;2023-03-13T08:13:42;9.60;;;7.87;;
12921;SDS011;6528;48.086;16.282;2023-03-13T08:16:10;10.70;;;7.63;;
12921;SDS011;6528;48.086;16.282;2023-03-13T08:18:40;8.83;;;8.00;;
12921;SDS011;6528;48.086;16.282;2023-03-13T08:21:10;9.90;;;7.40;;
12921;SDS011;6528;48.086;16.282;2023-03-13T08:23:46;8.90;;;7.67;;
12921;SDS011;6528;48.086;16.282;2023-03-13T08:26:14;10.90;;;6.80;;
12921;SDS011;6528;48.086;16.282;2023-03-13T08:28:43;8.70;;;7.23;;
12921;SDS011;6528;48.086;16.282;2023-03-13T08:31:13;8.27;;;6.87;;
12921;SDS011;6528;48.086;16.282;2023-03-13T08:33:42;12.40;;;7.70;;
12921;SDS011;6528;48.086;16.282;2023-03-13T08:38:38;7.73;;;6.53;;
12921;SDS011;6528;48.086;16.282;2023-03-13T08:41:08;8.50;;;6.97;;
12921;SDS011;6528;48.086;16.282;2023-03-13T08:43:36;9.30;;;7.00;;
12921;SDS011;6528;48.086;16.282;2023-03-13T08:46:03;8.10;;;6.60;;
12921;SDS011;6528;48.086;16.282;2023-03-13T08:48:30;10.37;;;6.57;;
12921;SDS011;6528;48.086;16.282;2023-03-13T08:53:28;8.27;;;6.10;;
12921;SDS011;6528;48.086;16.282;2023-03-13T08:55:55;7.50;;;6.17;;
12921;SDS011;6528;48.086;16.282;2023-03-13T08:58:22;9.27;;;6.83;;
12921;SDS011;6528;48.086;16.282;2023-03-13T09:00:49;8.17;;;7.13;;
12921;SDS011;6528;48.086;16.282;2023-03-13T09:03:16;8.60;;;5.90;;
12921;SDS011;6528;48.086;16.282;2023-03-13T09:05:43;8.27;;;6.23;;
12921;SDS011;6528;48.086;16.282;2023-03-13T09:08:21;7.23;;;6.50;;
12921;SDS011;6528;48.086;16.282;2023-03-13T09:10:58;9.23;;;6.67;;
12921;SDS011;6528;48.086;16.282;2023-03-13T09:13:31;7.23;;;6.37;;
12921;SDS011;6528;48.086;16.282;2023-03-13T09:16:00;8.30;;;6.97;;
12921;SDS011;6528;48.086;16.282;2023-03-13T09:18:29;8.57;;;6.70;;
12921;SDS011;6528;48.086;16.282;2023-03-13T09:20:57;7.93;;;6.47;;
12921;SDS011;6528;48.086;16.282;2023-03-13T09:23:24;7.20;;;5.70;;
12921;SDS011;6528;48.086;16.282;2023-03-13T09:25:52;7.40;;;6.50;;
12921;SDS011;6528;48.086;16.282;2023-03-13T09:28:20;6.77;;;6.00;;
12921;SDS011;6528;48.086;16.282;2023-03-13T09:30:48;6.83;;;6.13;;
12921;SDS011;6528;48.086;16.282;2023-03-13T09:33:15;7.07;;;6.13;;
12921;SDS011;6528;48.086;16.282;2023-03-13T09:35:43;8.00;;;6.53;;
12921;SDS011;6528;48.086;16.282;2023-03-13T09:38:17;8.37;;;7.00;;
12921;SDS011;6528;48.086;16.282;2023-03-13T09:40:49;12.13;;;7.43;;
12921;SDS011;6528;48.086;16.282;2023-03-13T09:43:35;7.83;;;6.60;;
12921;SDS011;6528;48.086;16.282;2023-03-13T09:46:17;8.57;;;7.07;;
12921;SDS011;6528;48.086;16.282;2023-03-13T09:48:58;10.33;;;7.90;;
12921;SDS011;6528;48.086;16.282;2023-03-13T09:51:34;9.13;;;8.23;;
12921;SDS011;6528;48.086;16.282;2023-03-13T09:54:07;9.03;;;7.60;;
12921;SDS011;6528;48.086;16.282;2023-03-13T09:56:49;9.10;;;8.10;;
12921;SDS011;6528;48.086;16.282;2023-03-13T09:59:20;8.17;;;7.37;;
12921;SDS011;6528;48.086;16.282;2023-03-13T10:01:50;9.40;;;8.50;;
12921;SDS011;6528;48.086;16.282;2023-03-13T10:04:27;9.53;;;8.43;;
12921;SDS011;6528;48.086;16.282;2023-03-13T10:06:55;10.47;;;9.37;;
12921;SDS011;6528;48.086;16.282;2023-03-13T10:09:27;10.83;;;9.73;;
12921;SDS011;6528;48.086;16.282;2023-03-13T10:14:25;11.80;;;10.60;;
12921;SDS011;6528;48.086;16.282;2023-03-13T10:19:59;11.40;;;10.30;;
12921;SDS011;6528;48.086;16.282;2023-03-13T10:22:35;12.73;;;10.13;;
12921;SDS011;6528;48.086;16.282;2023-03-13T10:25:08;12.10;;;9.87;;
12921;SDS011;6528;48.086;16.282;2023-03-13T10:27:49;11.33;;;9.60;;
12921;SDS011;6528;48.086;16.282;2023-03-13T10:32:46;11.60;;;9.80;;
12921;SDS011;6528;48.086;16.282;2023-03-13T10:35:19;10.23;;;9.23;;
12921;SDS011;6528;48.086;16.282;2023-03-13T10:37:49;11.23;;;9.97;;
12921;SDS011;6528;48.086;16.282;2023-03-13T10:40:26;10.30;;;9.30;;
12921;SDS011;6528;48.086;16.282;2023-03-13T10:42:59;12.67;;;10.57;;
12921;SDS011;6528;48.086;16.282;2023-03-13T10:45:52;13.23;;;9.70;;
12921;SDS011;6528;48.086;16.282;2023-03-13T10:50:49;9.97;;;8.97;;
12921;SDS011;6528;48.086;16.282;2023-03-13T10:55:56;10.73;;;9.63;;
12921;SDS011;6528;48.086;16.282;2023-03-13T10:58:42;12.10;;;10.10;;
12921;SDS011;6528;48.086;16.282;2023-03-13T11:03:43;11.43;;;10.33;;
12921;SDS011;6528;48.086;16.282;2023-03-13T11:06:26;11.73;;;10.53;;
12921;SDS011;6528;48.086;16.282;2023-03-13T11:09:12;13.40;;;11.10;;
12921;SDS011;6528;48.086;16.282;2023-03-13T11:11:54;12.10;;;10.80;;
12921;SDS011;6528;48.086;16.282;2023-03-13T11:14:27;12.43;;;11.23;;
12921;SDS011;6528;48.086;16.282;2023-03-13T11:16:55;12.00;;;10.80;;
12921;SDS011;6528;48.086;16.282;2023-03-13T11:19:36;13.97;;;11.30;;
12921;SDS011;6528;48.086;16.282;2023-03-13T11:22:39;12.27;;;11.13;;
12921;SDS011;6528;48.086;16.282;2023-03-13T11:30:59;13.00;;;11.80;;
12921;SDS011;6528;48.086;16.282;2023-03-13T11:33:47;12.73;;;11.53;;
12921;SDS011;6528;48.086;16.282;2023-03-13T11:36:20;13.10;;;11.80;;
12921;SDS011;6528;48.086;16.282;2023-03-13T11:38:52;13.10;;;11.80;;
12921;SDS011;6528;48.086;16.282;2023-03-13T11:58:54;13.30;;;11.13;;
12921;SDS011;6528;48.086;16.282;2023-03-13T12:01:30;7.97;;;6.10;;
12921;SDS011;6528;48.086;16.282;2023-03-13T12:04:05;6.23;;;5.73;;
12921;SDS011;6528;48.086;16.282;2023-03-13T12:06:44;4.73;;;4.33;;
12921;SDS011;6528;48.086;16.282;2023-03-13T12:09:23;4.17;;;3.77;;
12921;SDS011;6528;48.086;16.282;2023-03-13T12:14:58;3.77;;;3.47;;
12921;SDS011;6528;48.086;16.282;2023-03-13T12:17:48;5.40;;;2.63;;
12921;SDS011;6528;48.086;16.282;2023-03-13T12:20:26;8.30;;;2.87;;
12921;SDS011;6528;48.086;16.282;2023-03-13T12:23:16;3.27;;;2.77;;
12921;SDS011;6528;48.086;16.282;2023-03-13T12:28:36;5.50;;;2.40;;
12921;SDS011;6528;48.086;16.282;2023-03-13T12:34:16;2.70;;;2.50;;
12921;SDS011;6528;48.086;16.282;2023-03-13T12:37:00;3.13;;;2.47;;
12921;SDS011;6528;48.086;16.282;2023-03-13T12:39:36;2.50;;;2.30;;
12921;SDS011;6528;48.086;16.282;2023-03-13T12:42:17;2.90;;;2.33;;
12921;SDS011;6528;48.086;16.282;2023-03-13T12:44:46;2.90;;;2.30;;
12921;SDS011;6528;48.086;16.282;2023-03-13T13:01:39;2.53;;;2.20;;
12921;SDS011;6528;48.086;16.282;2023-03-13T13:04:11;2.60;;;1.97;;
12921;SDS011;6528;48.086;16.282;2023-03-13T13:07:06;2.73;;;2.47;;
12921;SDS011;6528;48.086;16.282;2023-03-13T13:09:59;2.13;;;1.97;;
12921;SDS011;6528;48.086;16.282;2023-03-13T13:12:36;2.60;;;2.40;;
12921;SDS011;6528;48.086;16.282;2023-03-13T13:15:21;3.30;;;2.17;;
12921;SDS011;6528;48.086;16.282;2023-03-13T13:18:03;3.13;;;2.83;;
12921;SDS011;6528;48.086;16.282;2023-03-13T13:21:27;2.50;;;2.30;;
12921;SDS011;6528;48.086;16.282;2023-03-13T13:26:46;2.07;;;1.83;;
12921;SDS011;6528;48.086;16.282;2023-03-13T13:47:41;2.00;;;1.80;;
12921;SDS011;6528;48.086;16.282;2023-03-13T13:50:17;2.87;;;2.10;;
12921;SDS011;6528;48.086;16.282;2023-03-13T13:52:51;2.10;;;1.90;;
12921;SDS011;6528;48.086;16.282;2023-03-13T13:58:10;3.13;;;2.17;;
12921;SDS011;6528;48.086;16.282;2023-03-13T14:00:47;4.43;;;2.30;;
12921;SDS011;6528;48.086;16.282;2023-03-13T14:03:22;2.33;;;2.17;;
12921;SDS011;6528;48.086;16.282;2023-03-13T14:05:53;2.33;;;2.13;;
12921;SDS011;6528;48.086;16.282;2023-03-13T14:08:32;4.50;;;2.17;;
12921;SDS011;6528;48.086;16.282;2023-03-13T14:14:17;1.93;;;1.83;;
12921;SDS011;6528;48.086;16.282;2023-03-13T14:16:53;1.90;;;1.80;;
12921;SDS011;6528;48.086;16.282;2023-03-13T14:19:35;2.03;;;1.83;;
12921;SDS011;6528;48.086;16.282;2023-03-13T14:22:08;2.50;;;2.10;;
12921;SDS011;6528;48.086;16.282;2023-03-13T14:24:36;2.30;;;1.60;;
12921;SDS011;6528;48.086;16.282;2023-03-13T14:27:16;2.83;;;2.63;;
12921;SDS011;6528;48.086;16.282;2023-03-13T14:30:00;2.20;;;1.80;;
12921;SDS011;6528;48.086;16.282;2023-03-13T14:32:28;1.97;;;1.87;;
12921;SDS011;6528;48.086;16.282;2023-03-13T14:34:55;2.07;;;1.93;;
12921;SDS011;6528;48.086;16.282;2023-03-13T14:42:59;1.97;;;1.87;;
12921;SDS011;6528;48.086;16.282;2023-03-13T14:45:28;2.90;;;1.90;;
12921;SDS011;6528;48.086;16.282;2023-03-13T14:48:01;3.23;;;2.17;;
12921;SDS011;6528;48.086;16.282;2023-03-13T14:50:39;1.60;;;1.50;;
12921;SDS011;6528;48.086;16.282;2023-03-13T14:53:13;2.80;;;2.00;;
12921;SDS011;6528;48.086;16.282;2023-03-13T14:55:43;1.90;;;1.80;;
12921;SDS011;6528;48.086;16.282;2023-03-13T15:00:49;1.70;;;1.60;;
12921;SDS011;6528;48.086;16.282;2023-03-13T15:06:01;1.60;;;1.50;;
12921;SDS011;6528;48.086;16.282;2023-03-13T15:08:38;2.50;;;2.13;;
12921;SDS011;6528;48.086;16.282;2023-03-13T15:13:59;1.80;;;1.70;;
12921;SDS011;6528;48.086;16.282;2023-03-13T15:16:27;2.17;;;2.00;;
12921;SDS011;6528;48.086;16.282;2023-03-13T15:18:55;2.50;;;1.83;;
12921;SDS011;6528;48.086;16.282;2023-03-13T15:21:26;1.90;;;1.80;;
12921;SDS011;6528;48.086;16.282;2023-03-13T15:24:01;1.60;;;1.50;;
12921;SDS011;6528;48.086;16.282;2023-03-13T15:26:38;2.60;;;2.40;;
12921;SDS011;6528;48.086;16.282;2023-03-13T15:29:05;2.13;;;2.03;;
12921;SDS011;6528;48.086;16.282;2023-03-13T15:31:32;2.57;;;2.37;;
12921;SDS011;6528;48.086;16.282;2023-03-13T15:33:59;1.73;;;1.63;;
12921;SDS011;6528;48.086;16.282;2023-03-13T15:36:28;2.30;;;2.20;;
12921;SDS011;6528;48.086;16.282;2023-03-13T15:38:56;5.13;;;2.60;;
12921;SDS011;6528;48.086;16.282;2023-03-13T15:41:23;2.20;;;2.00;;
12921;SDS011;6528;48.086;16.282;2023-03-13T15:43:50;1.97;;;1.87;;
12921;SDS011;6528;48.086;16.282;2023-03-13T15:46:18;3.00;;;2.10;;
12921;SDS011;6528;48.086;16.282;2023-03-13T15:48:46;2.10;;;2.00;;
12921;SDS011;6528;48.086;16.282;2023-03-13T15:51:14;1.53;;;1.43;;
12921;SDS011;6528;48.086;16.282;2023-03-13T15:53:42;2.57;;;1.83;;
12921;SDS011;6528;48.086;16.282;2023-03-13T15:56:13;2.13;;;1.97;;
12921;SDS011;6528;48.086;16.282;2023-03-13T15:58:44;2.13;;;2.03;;
12921;SDS011;6528;48.086;16.282;2023-03-13T16:01:12;2.70;;;2.50;;
12921;SDS011;6528;48.086;16.282;2023-03-13T16:03:41;2.00;;;1.90;;
12921;SDS011;6528;48.086;16.282;2023-03-13T16:06:10;2.57;;;2.37;;
12921;SDS011;6528;48.086;16.282;2023-03-13T16:08:40;2.10;;;2.00;;
12921;SDS011;6528;48.086;16.282;2023-03-13T16:11:08;2.13;;;2.03;;
12921;SDS011;6528;48.086;16.282;2023-03-13T16:13:37;1.97;;;1.80;;
12921;SDS011;6528;48.086;16.282;2023-03-13T16:16:10;2.80;;;1.97;;
12921;SDS011;6528;48.086;16.282;2023-03-13T16:18:43;2.70;;;1.97;;
12921;SDS011;6528;48.086;16.282;2023-03-13T16:21:26;2.33;;;2.17;;
12921;SDS011;6528;48.086;16.282;2023-03-13T16:23:54;2.10;;;2.00;;
12921;SDS011;6528;48.086;16.282;2023-03-13T16:26:22;2.77;;;2.57;;
12921;SDS011;6528;48.086;16.282;2023-03-13T16:28:51;2.60;;;2.40;;
12921;SDS011;6528;48.086;16.282;2023-03-13T16:33:48;2.37;;;2.20;;
12921;SDS011;6528;48.086;16.282;2023-03-13T16:36:20;2.07;;;1.97;;
12921;SDS011;6528;48.086;16.282;2023-03-13T16:38:50;2.47;;;2.27;;
12921;SDS011;6528;48.086;16.282;2023-03-13T16:41:18;2.53;;;2.33;;
12921;SDS011;6528;48.086;16.282;2023-03-13T16:43:47;2.37;;;2.20;;
12921;SDS011;6528;48.086;16.282;2023-03-13T16:46:18;2.27;;;2.00;;
12921;SDS011;6528;48.086;16.282;2023-03-13T16:48:47;2.47;;;2.27;;
12921;SDS011;6528;48.086;16.282;2023-03-13T16:51:20;2.43;;;2.07;;
12921;SDS011;6528;48.086;16.282;2023-03-13T16:53:49;3.17;;;2.70;;
12921;SDS011;6528;48.086;16.282;2023-03-13T16:59:02;2.43;;;2.23;;
12921;SDS011;6528;48.086;16.282;2023-03-13T17:01:35;4.87;;;2.10;;
12921;SDS011;6528;48.086;16.282;2023-03-13T17:04:03;2.37;;;2.17;;
12921;SDS011;6528;48.086;16.282;2023-03-13T17:06:33;3.13;;;2.87;;
12921;SDS011;6528;48.086;16.282;2023-03-13T17:09:03;2.47;;;2.27;;